sensor_id;sensor_type;location;lat;lon;timestamp;P1;durP1;ratioP1;P2;durP2;ratioP2
18249;SDS011;27980;52.126;5.572;2023-04-25T00:01:32;8.63;;;1.95;;
18249;SDS011;27980;52.126;5.572;2023-04-25T00:04:01;6.05;;;1.98;;
18249;SDS011;27980;52.126;5.572;2023-04-25T00:06:27;9.93;;;2.70;;
18249;SDS011;27980;52.126;5.572;2023-04-25T00:08:54;8.40;;;2.65;;
18249;SDS011;27980;52.126;5.572;2023-04-25T00:11:21;4.05;;;2.25;;
18249;SDS011;27980;52.126;5.572;2023-04-25T00:13:49;12.10;;;2.42;;
18249;SDS011;27980;52.126;5.572;2023-04-25T00:16:16;5.38;;;1.95;;
18249;SDS011;27980;52.126;5.572;2023-04-25T00:18:43;21.92;;;3.05;;
18249;SDS011;27980;52.126;5.572;2023-04-25T00:21:11;6.50;;;2.70;;
18249;SDS011;27980;52.126;5.572;2023-04-25T00:23:38;8.30;;;2.35;;
18249;SDS011;27980;52.126;5.572;2023-04-25T00:26:05;6.07;;;2.20;;
18249;SDS011;27980;52.126;5.572;2023-04-25T00:28:32;5.63;;;2.25;;
18249;SDS011;27980;52.126;5.572;2023-04-25T00:31:02;5.28;;;2.03;;
18249;SDS011;27980;52.126;5.572;2023-04-25T00:33:29;7.57;;;2.45;;
18249;SDS011;27980;52.126;5.572;2023-04-25T00:35:55;9.43;;;1.95;;
18249;SDS011;27980;52.126;5.572;2023-04-25T00:38:22;9.55;;;2.70;;
18249;SDS011;27980;52.126;5.572;2023-04-25T00:40:48;6.07;;;2.22;;
18249;SDS011;27980;52.126;5.572;2023-04-25T00:43:15;11.23;;;2.80;;
18249;SDS011;27980;52.126;5.572;2023-04-25T00:45:41;8.77;;;2.05;;
18249;SDS011;27980;52.126;5.572;2023-04-25T00:48:11;7.82;;;2.58;;
18249;SDS011;27980;52.126;5.572;2023-04-25T00:50:39;5.30;;;2.00;;
18249;SDS011;27980;52.126;5.572;2023-04-25T00:53:05;11.57;;;2.35;;
18249;SDS011;27980;52.126;5.572;2023-04-25T00:55:36;4.72;;;2.42;;
18249;SDS011;27980;52.126;5.572;2023-04-25T00:58:03;6.68;;;2.67;;
18249;SDS011;27980;52.126;5.572;2023-04-25T01:00:30;8.68;;;3.65;;
18249;SDS011;27980;52.126;5.572;2023-04-25T01:02:56;5.90;;;2.45;;
18249;SDS011;27980;52.126;5.572;2023-04-25T01:05:24;4.13;;;2.00;;
18249;SDS011;27980;52.126;5.572;2023-04-25T01:07:50;9.10;;;2.55;;
18249;SDS011;27980;52.126;5.572;2023-04-25T01:10:17;10.52;;;3.10;;
18249;SDS011;27980;52.126;5.572;2023-04-25T01:12:44;13.82;;;2.85;;
18249;SDS011;27980;52.126;5.572;2023-04-25T01:15:10;9.88;;;2.85;;
18249;SDS011;27980;52.126;5.572;2023-04-25T01:17:37;8.57;;;2.90;;
18249;SDS011;27980;52.126;5.572;2023-04-25T01:20:04;10.52;;;2.65;;
18249;SDS011;27980;52.126;5.572;2023-04-25T01:22:35;6.45;;;2.50;;
18249;SDS011;27980;52.126;5.572;2023-04-25T01:25:03;13.70;;;2.80;;
18249;SDS011;27980;52.126;5.572;2023-04-25T01:27:30;4.65;;;2.03;;
18249;SDS011;27980;52.126;5.572;2023-04-25T01:29:56;7.20;;;2.55;;
18249;SDS011;27980;52.126;5.572;2023-04-25T01:32:23;5.53;;;2.70;;
18249;SDS011;27980;52.126;5.572;2023-04-25T01:34:50;6.13;;;2.03;;
18249;SDS011;27980;52.126;5.572;2023-04-25T01:37:16;5.70;;;2.15;;
18249;SDS011;27980;52.126;5.572;2023-04-25T01:39:44;9.93;;;2.45;;
18249;SDS011;27980;52.126;5.572;2023-04-25T01:42:11;7.53;;;2.55;;
18249;SDS011;27980;52.126;5.572;2023-04-25T01:44:38;1.98;;;1.70;;
18249;SDS011;27980;52.126;5.572;2023-04-25T01:47:04;7.13;;;2.28;;
18249;SDS011;27980;52.126;5.572;2023-04-25T01:49:31;8.43;;;2.38;;
18249;SDS011;27980;52.126;5.572;2023-04-25T01:51:57;4.45;;;2.08;;
18249;SDS011;27980;52.126;5.572;2023-04-25T01:54:24;11.18;;;2.40;;
18249;SDS011;27980;52.126;5.572;2023-04-25T01:56:52;7.45;;;3.13;;
18249;SDS011;27980;52.126;5.572;2023-04-25T01:59:21;12.40;;;2.20;;
18249;SDS011;27980;52.126;5.572;2023-04-25T02:01:48;7.03;;;2.00;;
18249;SDS011;27980;52.126;5.572;2023-04-25T02:04:16;11.50;;;2.60;;
18249;SDS011;27980;52.126;5.572;2023-04-25T02:06:42;4.22;;;1.85;;
18249;SDS011;27980;52.126;5.572;2023-04-25T02:09:09;5.07;;;2.20;;
18249;SDS011;27980;52.126;5.572;2023-04-25T02:11:35;7.75;;;2.38;;
18249;SDS011;27980;52.126;5.572;2023-04-25T02:14:06;6.00;;;2.20;;
18249;SDS011;27980;52.126;5.572;2023-04-25T02:16:32;7.85;;;2.35;;
18249;SDS011;27980;52.126;5.572;2023-04-25T02:18:58;6.53;;;2.85;;
18249;SDS011;27980;52.126;5.572;2023-04-25T02:21:25;8.18;;;2.20;;
18249;SDS011;27980;52.126;5.572;2023-04-25T02:23:52;15.30;;;3.33;;
18249;SDS011;27980;52.126;5.572;2023-04-25T02:26:19;4.25;;;2.10;;
18249;SDS011;27980;52.126;5.572;2023-04-25T02:28:46;10.05;;;2.60;;
18249;SDS011;27980;52.126;5.572;2023-04-25T02:31:14;7.00;;;2.28;;
18249;SDS011;27980;52.126;5.572;2023-04-25T02:33:41;5.93;;;2.30;;
18249;SDS011;27980;52.126;5.572;2023-04-25T02:36:08;9.68;;;2.55;;
18249;SDS011;27980;52.126;5.572;2023-04-25T02:38:34;7.97;;;2.83;;
18249;SDS011;27980;52.126;5.572;2023-04-25T02:41:02;4.25;;;2.10;;
18249;SDS011;27980;52.126;5.572;2023-04-25T02:43:28;3.97;;;2.17;;
18249;SDS011;27980;52.126;5.572;2023-04-25T02:45:54;7.60;;;2.80;;
18249;SDS011;27980;52.126;5.572;2023-04-25T02:48:22;3.67;;;2.10;;
18249;SDS011;27980;52.126;5.572;2023-04-25T02:50:49;5.93;;;2.00;;
18249;SDS011;27980;52.126;5.572;2023-04-25T02:53:15;7.88;;;2.53;;
18249;SDS011;27980;52.126;5.572;2023-04-25T02:55:41;3.53;;;1.88;;
18249;SDS011;27980;52.126;5.572;2023-04-25T02:58:08;6.30;;;2.05;;
18249;SDS011;27980;52.126;5.572;2023-04-25T03:00:42;9.05;;;2.35;;
18249;SDS011;27980;52.126;5.572;2023-04-25T03:03:08;10.73;;;3.00;;
18249;SDS011;27980;52.126;5.572;2023-04-25T03:05:36;6.78;;;2.00;;
18249;SDS011;27980;52.126;5.572;2023-04-25T03:08:02;7.55;;;2.40;;
18249;SDS011;27980;52.126;5.572;2023-04-25T03:10:29;4.72;;;2.33;;
18249;SDS011;27980;52.126;5.572;2023-04-25T03:13:03;7.28;;;2.10;;
18249;SDS011;27980;52.126;5.572;2023-04-25T03:15:29;7.93;;;2.30;;
18249;SDS011;27980;52.126;5.572;2023-04-25T03:17:56;8.93;;;2.28;;
18249;SDS011;27980;52.126;5.572;2023-04-25T03:20:22;5.43;;;2.13;;
18249;SDS011;27980;52.126;5.572;2023-04-25T03:22:52;6.95;;;2.72;;
18249;SDS011;27980;52.126;5.572;2023-04-25T03:25:19;10.48;;;2.53;;
18249;SDS011;27980;52.126;5.572;2023-04-25T03:27:45;5.55;;;2.17;;
18249;SDS011;27980;52.126;5.572;2023-04-25T03:30:12;9.48;;;2.58;;
18249;SDS011;27980;52.126;5.572;2023-04-25T03:32:38;7.50;;;2.70;;
18249;SDS011;27980;52.126;5.572;2023-04-25T03:35:05;5.82;;;2.50;;
18249;SDS011;27980;52.126;5.572;2023-04-25T03:37:31;8.13;;;2.67;;
18249;SDS011;27980;52.126;5.572;2023-04-25T03:40:00;5.90;;;2.65;;
18249;SDS011;27980;52.126;5.572;2023-04-25T03:42:27;4.53;;;2.03;;
18249;SDS011;27980;52.126;5.572;2023-04-25T03:44:54;7.20;;;2.08;;
18249;SDS011;27980;52.126;5.572;2023-04-25T03:47:20;11.35;;;2.00;;
18249;SDS011;27980;52.126;5.572;2023-04-25T03:49:46;8.70;;;2.60;;
18249;SDS011;27980;52.126;5.572;2023-04-25T03:52:14;5.47;;;2.40;;
18249;SDS011;27980;52.126;5.572;2023-04-25T03:54:40;2.80;;;1.98;;
18249;SDS011;27980;52.126;5.572;2023-04-25T03:57:08;5.25;;;2.50;;
18249;SDS011;27980;52.126;5.572;2023-04-25T03:59:35;3.83;;;1.75;;
18249;SDS011;27980;52.126;5.572;2023-04-25T04:02:01;11.07;;;2.58;;
18249;SDS011;27980;52.126;5.572;2023-04-25T04:04:31;8.20;;;2.28;;
18249;SDS011;27980;52.126;5.572;2023-04-25T04:06:57;5.78;;;2.08;;
18249;SDS011;27980;52.126;5.572;2023-04-25T04:09:25;6.95;;;2.30;;
18249;SDS011;27980;52.126;5.572;2023-04-25T04:11:54;5.13;;;1.70;;
18249;SDS011;27980;52.126;5.572;2023-04-25T04:14:21;6.50;;;2.10;;
18249;SDS011;27980;52.126;5.572;2023-04-25T04:16:48;8.27;;;2.35;;
18249;SDS011;27980;52.126;5.572;2023-04-25T04:19:14;6.78;;;1.90;;
18249;SDS011;27980;52.126;5.572;2023-04-25T04:21:41;7.22;;;2.55;;
18249;SDS011;27980;52.126;5.572;2023-04-25T04:24:07;3.70;;;2.03;;
18249;SDS011;27980;52.126;5.572;2023-04-25T04:26:35;7.13;;;2.20;;
18249;SDS011;27980;52.126;5.572;2023-04-25T04:29:02;11.18;;;2.67;;
18249;SDS011;27980;52.126;5.572;2023-04-25T04:31:31;8.15;;;1.55;;
18249;SDS011;27980;52.126;5.572;2023-04-25T04:33:58;4.50;;;2.30;;
18249;SDS011;27980;52.126;5.572;2023-04-25T04:36:24;3.67;;;2.08;;
18249;SDS011;27980;52.126;5.572;2023-04-25T04:38:51;12.30;;;2.58;;
18249;SDS011;27980;52.126;5.572;2023-04-25T04:41:18;2.50;;;1.50;;
18249;SDS011;27980;52.126;5.572;2023-04-25T04:43:45;4.47;;;1.75;;
18249;SDS011;27980;52.126;5.572;2023-04-25T04:46:11;3.70;;;2.00;;
18249;SDS011;27980;52.126;5.572;2023-04-25T04:48:39;3.45;;;1.45;;
18249;SDS011;27980;52.126;5.572;2023-04-25T04:51:06;3.22;;;2.03;;
18249;SDS011;27980;52.126;5.572;2023-04-25T04:53:34;9.52;;;2.33;;
18249;SDS011;27980;52.126;5.572;2023-04-25T04:56:00;7.32;;;2.28;;
18249;SDS011;27980;52.126;5.572;2023-04-25T04:58:26;9.40;;;2.65;;
18249;SDS011;27980;52.126;5.572;2023-04-25T05:00:54;6.75;;;2.35;;
18249;SDS011;27980;52.126;5.572;2023-04-25T05:03:21;5.78;;;1.52;;
18249;SDS011;27980;52.126;5.572;2023-04-25T05:05:49;6.45;;;1.70;;
18249;SDS011;27980;52.126;5.572;2023-04-25T05:08:15;5.82;;;1.85;;
18249;SDS011;27980;52.126;5.572;2023-04-25T05:10:42;6.90;;;1.77;;
18249;SDS011;27980;52.126;5.572;2023-04-25T05:13:08;3.22;;;1.38;;
18249;SDS011;27980;52.126;5.572;2023-04-25T05:15:35;3.55;;;1.65;;
18249;SDS011;27980;52.126;5.572;2023-04-25T05:18:01;5.22;;;1.73;;
18249;SDS011;27980;52.126;5.572;2023-04-25T05:20:28;3.58;;;1.45;;
18249;SDS011;27980;52.126;5.572;2023-04-25T05:22:55;3.28;;;1.30;;
18249;SDS011;27980;52.126;5.572;2023-04-25T05:25:22;5.95;;;1.35;;
18249;SDS011;27980;52.126;5.572;2023-04-25T05:27:48;2.45;;;1.70;;
18249;SDS011;27980;52.126;5.572;2023-04-25T05:30:16;5.07;;;2.15;;
18249;SDS011;27980;52.126;5.572;2023-04-25T05:32:42;4.03;;;1.40;;
18249;SDS011;27980;52.126;5.572;2023-04-25T05:35:09;4.05;;;1.20;;
18249;SDS011;27980;52.126;5.572;2023-04-25T05:37:35;8.27;;;1.77;;
18249;SDS011;27980;52.126;5.572;2023-04-25T05:40:05;5.43;;;1.30;;
18249;SDS011;27980;52.126;5.572;2023-04-25T05:42:32;4.68;;;1.55;;
18249;SDS011;27980;52.126;5.572;2023-04-25T05:44:58;8.02;;;1.60;;
18249;SDS011;27980;52.126;5.572;2023-04-25T05:47:25;3.28;;;1.63;;
18249;SDS011;27980;52.126;5.572;2023-04-25T05:49:52;4.60;;;1.75;;
18249;SDS011;27980;52.126;5.572;2023-04-25T05:52:18;7.07;;;1.45;;
18249;SDS011;27980;52.126;5.572;2023-04-25T05:54:45;4.15;;;1.80;;
18249;SDS011;27980;52.126;5.572;2023-04-25T05:57:19;2.67;;;0.90;;
18249;SDS011;27980;52.126;5.572;2023-04-25T05:59:45;6.22;;;1.35;;
18249;SDS011;27980;52.126;5.572;2023-04-25T06:02:12;3.13;;;1.15;;
18249;SDS011;27980;52.126;5.572;2023-04-25T06:04:39;4.72;;;1.40;;
18249;SDS011;27980;52.126;5.572;2023-04-25T06:07:05;5.10;;;1.30;;
18249;SDS011;27980;52.126;5.572;2023-04-25T06:09:31;2.83;;;1.63;;
18249;SDS011;27980;52.126;5.572;2023-04-25T06:11:58;1.38;;;0.95;;
18249;SDS011;27980;52.126;5.572;2023-04-25T06:14:26;9.35;;;1.27;;
18249;SDS011;27980;52.126;5.572;2023-04-25T06:16:52;5.85;;;1.30;;
18249;SDS011;27980;52.126;5.572;2023-04-25T06:19:19;5.22;;;1.20;;
18249;SDS011;27980;52.126;5.572;2023-04-25T06:21:46;6.35;;;1.48;;
18249;SDS011;27980;52.126;5.572;2023-04-25T06:24:12;6.53;;;1.38;;
18249;SDS011;27980;52.126;5.572;2023-04-25T06:26:39;2.20;;;1.02;;
18249;SDS011;27980;52.126;5.572;2023-04-25T06:29:05;3.13;;;0.98;;
18249;SDS011;27980;52.126;5.572;2023-04-25T06:31:33;4.97;;;1.88;;
18249;SDS011;27980;52.126;5.572;2023-04-25T06:34:00;4.88;;;1.70;;
18249;SDS011;27980;52.126;5.572;2023-04-25T06:36:27;2.67;;;1.40;;
18249;SDS011;27980;52.126;5.572;2023-04-25T06:38:53;5.00;;;1.50;;
18249;SDS011;27980;52.126;5.572;2023-04-25T06:41:20;4.60;;;1.13;;
18249;SDS011;27980;52.126;5.572;2023-04-25T06:43:46;3.67;;;1.33;;
18249;SDS011;27980;52.126;5.572;2023-04-25T06:46:13;5.70;;;1.30;;
18249;SDS011;27980;52.126;5.572;2023-04-25T06:48:41;4.55;;;1.45;;
18249;SDS011;27980;52.126;5.572;2023-04-25T06:51:07;4.80;;;1.38;;
18249;SDS011;27980;52.126;5.572;2023-04-25T06:53:34;3.65;;;1.27;;
18249;SDS011;27980;52.126;5.572;2023-04-25T06:56:03;4.40;;;1.10;;
18249;SDS011;27980;52.126;5.572;2023-04-25T06:58:30;7.30;;;1.02;;
18249;SDS011;27980;52.126;5.572;2023-04-25T07:00:57;4.63;;;0.98;;
18249;SDS011;27980;52.126;5.572;2023-04-25T07:03:24;3.13;;;1.13;;
18249;SDS011;27980;52.126;5.572;2023-04-25T07:05:52;2.83;;;0.77;;
18249;SDS011;27980;52.126;5.572;2023-04-25T07:08:19;5.47;;;0.93;;
18249;SDS011;27980;52.126;5.572;2023-04-25T07:10:46;4.30;;;1.10;;
18249;SDS011;27980;52.126;5.572;2023-04-25T07:13:15;6.05;;;1.08;;
18249;SDS011;27980;52.126;5.572;2023-04-25T07:15:41;3.38;;;1.10;;
18249;SDS011;27980;52.126;5.572;2023-04-25T07:18:08;4.65;;;0.90;;
18249;SDS011;27980;52.126;5.572;2023-04-25T07:20:34;1.52;;;0.90;;
18249;SDS011;27980;52.126;5.572;2023-04-25T07:23:02;9.52;;;1.25;;
18249;SDS011;27980;52.126;5.572;2023-04-25T07:25:28;5.72;;;1.25;;
18249;SDS011;27980;52.126;5.572;2023-04-25T07:27:55;3.75;;;0.90;;
18249;SDS011;27980;52.126;5.572;2023-04-25T07:30:22;3.95;;;1.17;;
18249;SDS011;27980;52.126;5.572;2023-04-25T07:32:49;5.10;;;0.90;;
18249;SDS011;27980;52.126;5.572;2023-04-25T07:35:16;3.33;;;0.95;;
18249;SDS011;27980;52.126;5.572;2023-04-25T07:37:43;6.20;;;1.00;;
18249;SDS011;27980;52.126;5.572;2023-04-25T07:40:14;1.92;;;0.65;;
18249;SDS011;27980;52.126;5.572;2023-04-25T07:42:41;1.67;;;0.60;;
18249;SDS011;27980;52.126;5.572;2023-04-25T07:45:08;4.68;;;1.00;;
18249;SDS011;27980;52.126;5.572;2023-04-25T07:47:36;3.28;;;0.60;;
18249;SDS011;27980;52.126;5.572;2023-04-25T07:50:03;1.67;;;0.73;;
18249;SDS011;27980;52.126;5.572;2023-04-25T07:52:30;5.38;;;0.70;;
18249;SDS011;27980;52.126;5.572;2023-04-25T07:54:58;2.67;;;0.80;;
18249;SDS011;27980;52.126;5.572;2023-04-25T07:57:28;4.72;;;0.80;;
18249;SDS011;27980;52.126;5.572;2023-04-25T07:59:55;2.00;;;0.80;;
18249;SDS011;27980;52.126;5.572;2023-04-25T08:02:21;5.38;;;1.23;;
18249;SDS011;27980;52.126;5.572;2023-04-25T08:04:48;3.65;;;0.63;;
18249;SDS011;27980;52.126;5.572;2023-04-25T08:07:16;4.80;;;1.00;;
18249;SDS011;27980;52.126;5.572;2023-04-25T08:09:42;5.10;;;0.90;;
18249;SDS011;27980;52.126;5.572;2023-04-25T08:12:11;1.75;;;0.75;;
18249;SDS011;27980;52.126;5.572;2023-04-25T08:14:38;5.03;;;1.23;;
18249;SDS011;27980;52.126;5.572;2023-04-25T08:17:05;2.90;;;0.80;;
18249;SDS011;27980;52.126;5.572;2023-04-25T08:19:32;3.45;;;0.60;;
18249;SDS011;27980;52.126;5.572;2023-04-25T08:21:58;4.85;;;1.20;;
18249;SDS011;27980;52.126;5.572;2023-04-25T08:24:24;4.53;;;1.13;;
18249;SDS011;27980;52.126;5.572;2023-04-25T08:26:51;3.15;;;0.80;;
18249;SDS011;27980;52.126;5.572;2023-04-25T08:29:17;1.73;;;1.13;;
18249;SDS011;27980;52.126;5.572;2023-04-25T08:31:46;6.13;;;1.10;;
18249;SDS011;27980;52.126;5.572;2023-04-25T08:34:13;6.50;;;1.10;;
18249;SDS011;27980;52.126;5.572;2023-04-25T08:36:40;3.20;;;1.10;;
18249;SDS011;27980;52.126;5.572;2023-04-25T08:39:07;2.20;;;0.60;;
18249;SDS011;27980;52.126;5.572;2023-04-25T08:41:36;2.85;;;0.70;;
18249;SDS011;27980;52.126;5.572;2023-04-25T08:44:03;3.92;;;0.70;;
18249;SDS011;27980;52.126;5.572;2023-04-25T08:46:29;1.30;;;1.00;;
18249;SDS011;27980;52.126;5.572;2023-04-25T08:49:00;4.97;;;0.93;;
18249;SDS011;27980;52.126;5.572;2023-04-25T08:51:27;1.55;;;0.80;;
18249;SDS011;27980;52.126;5.572;2023-04-25T08:53:56;2.15;;;0.63;;
18249;SDS011;27980;52.126;5.572;2023-04-25T08:56:27;4.15;;;0.88;;
18249;SDS011;27980;52.126;5.572;2023-04-25T08:58:59;4.00;;;0.98;;
18249;SDS011;27980;52.126;5.572;2023-04-25T09:01:27;3.47;;;0.77;;
18249;SDS011;27980;52.126;5.572;2023-04-25T09:03:53;4.80;;;0.60;;
18249;SDS011;27980;52.126;5.572;2023-04-25T09:06:22;3.67;;;0.98;;
18249;SDS011;27980;52.126;5.572;2023-04-25T09:08:49;2.17;;;1.13;;
18249;SDS011;27980;52.126;5.572;2023-04-25T09:11:17;4.40;;;0.95;;
18249;SDS011;27980;52.126;5.572;2023-04-25T09:13:43;2.05;;;0.73;;
18249;SDS011;27980;52.126;5.572;2023-04-25T09:16:09;1.17;;;0.47;;
18249;SDS011;27980;52.126;5.572;2023-04-25T09:18:37;1.48;;;0.70;;
18249;SDS011;27980;52.126;5.572;2023-04-25T09:21:07;3.47;;;0.73;;
18249;SDS011;27980;52.126;5.572;2023-04-25T09:23:44;4.00;;;0.70;;
18249;SDS011;27980;52.126;5.572;2023-04-25T09:26:13;2.58;;;0.65;;
18249;SDS011;27980;52.126;5.572;2023-04-25T09:28:40;1.58;;;0.70;;
18249;SDS011;27980;52.126;5.572;2023-04-25T09:31:09;1.63;;;0.60;;
18249;SDS011;27980;52.126;5.572;2023-04-25T09:33:37;3.30;;;0.75;;
18249;SDS011;27980;52.126;5.572;2023-04-25T09:36:06;2.53;;;0.95;;
18249;SDS011;27980;52.126;5.572;2023-04-25T09:38:38;1.38;;;0.80;;
18249;SDS011;27980;52.126;5.572;2023-04-25T09:41:07;1.55;;;0.63;;
18249;SDS011;27980;52.126;5.572;2023-04-25T09:43:34;2.08;;;0.88;;
18249;SDS011;27980;52.126;5.572;2023-04-25T09:46:00;2.05;;;0.63;;
18249;SDS011;27980;52.126;5.572;2023-04-25T09:48:27;2.50;;;0.60;;
18249;SDS011;27980;52.126;5.572;2023-04-25T09:51:04;2.47;;;0.90;;
18249;SDS011;27980;52.126;5.572;2023-04-25T09:53:30;4.20;;;0.63;;
18249;SDS011;27980;52.126;5.572;2023-04-25T09:55:58;3.00;;;0.68;;
18249;SDS011;27980;52.126;5.572;2023-04-25T09:58:27;0.82;;;0.63;;
18249;SDS011;27980;52.126;5.572;2023-04-25T10:00:55;2.78;;;0.70;;
18249;SDS011;27980;52.126;5.572;2023-04-25T10:03:24;4.05;;;0.80;;
18249;SDS011;27980;52.126;5.572;2023-04-25T10:05:52;1.88;;;0.70;;
18249;SDS011;27980;52.126;5.572;2023-04-25T10:08:19;2.35;;;0.70;;
18249;SDS011;27980;52.126;5.572;2023-04-25T10:10:46;2.25;;;0.88;;
18249;SDS011;27980;52.126;5.572;2023-04-25T10:13:12;1.23;;;0.80;;
18249;SDS011;27980;52.126;5.572;2023-04-25T10:15:42;1.50;;;0.65;;
18249;SDS011;27980;52.126;5.572;2023-04-25T10:18:09;1.15;;;0.75;;
18249;SDS011;27980;52.126;5.572;2023-04-25T10:20:36;2.83;;;0.90;;
18249;SDS011;27980;52.126;5.572;2023-04-25T10:23:03;2.22;;;0.73;;
18249;SDS011;27980;52.126;5.572;2023-04-25T10:25:33;2.08;;;0.85;;
18249;SDS011;27980;52.126;5.572;2023-04-25T10:27:59;0.75;;;0.50;;
18249;SDS011;27980;52.126;5.572;2023-04-25T10:30:26;0.98;;;0.65;;
18249;SDS011;27980;52.126;5.572;2023-04-25T10:32:55;1.85;;;0.57;;
18249;SDS011;27980;52.126;5.572;2023-04-25T10:35:24;2.13;;;0.60;;
18249;SDS011;27980;52.126;5.572;2023-04-25T10:37:57;2.65;;;0.80;;
18249;SDS011;27980;52.126;5.572;2023-04-25T10:40:24;2.35;;;0.68;;
18249;SDS011;27980;52.126;5.572;2023-04-25T10:42:51;1.58;;;0.60;;
18249;SDS011;27980;52.126;5.572;2023-04-25T10:45:21;2.50;;;0.52;;
18249;SDS011;27980;52.126;5.572;2023-04-25T10:47:48;2.47;;;0.63;;
18249;SDS011;27980;52.126;5.572;2023-04-25T10:50:16;2.95;;;0.70;;
18249;SDS011;27980;52.126;5.572;2023-04-25T10:52:43;3.42;;;0.50;;
18249;SDS011;27980;52.126;5.572;2023-04-25T10:55:10;2.55;;;0.70;;
18249;SDS011;27980;52.126;5.572;2023-04-25T10:57:38;1.40;;;0.57;;
18249;SDS011;27980;52.126;5.572;2023-04-25T11:00:06;1.58;;;0.65;;
18249;SDS011;27980;52.126;5.572;2023-04-25T11:02:37;2.30;;;0.50;;
18249;SDS011;27980;52.126;5.572;2023-04-25T11:05:04;2.75;;;0.73;;
18249;SDS011;27980;52.126;5.572;2023-04-25T11:07:33;1.75;;;0.40;;
18249;SDS011;27980;52.126;5.572;2023-04-25T11:10:03;0.77;;;0.60;;
18249;SDS011;27980;52.126;5.572;2023-04-25T11:12:30;1.52;;;0.82;;
18249;SDS011;27980;52.126;5.572;2023-04-25T11:15:00;1.10;;;0.73;;
18249;SDS011;27980;52.126;5.572;2023-04-25T11:17:27;1.02;;;0.60;;
18249;SDS011;27980;52.126;5.572;2023-04-25T11:19:53;3.00;;;0.55;;
18249;SDS011;27980;52.126;5.572;2023-04-25T11:22:20;1.88;;;0.50;;
18249;SDS011;27980;52.126;5.572;2023-04-25T11:24:49;1.05;;;0.60;;
18249;SDS011;27980;52.126;5.572;2023-04-25T11:27:16;1.20;;;0.60;;
18249;SDS011;27980;52.126;5.572;2023-04-25T11:29:45;3.58;;;0.60;;
18249;SDS011;27980;52.126;5.572;2023-04-25T11:32:14;4.65;;;1.17;;
18249;SDS011;27980;52.126;5.572;2023-04-25T11:34:42;2.42;;;0.65;;
18249;SDS011;27980;52.126;5.572;2023-04-25T11:37:10;6.95;;;0.70;;
18249;SDS011;27980;52.126;5.572;2023-04-25T11:39:42;3.70;;;0.80;;
18249;SDS011;27980;52.126;5.572;2023-04-25T11:42:11;3.00;;;0.90;;
18249;SDS011;27980;52.126;5.572;2023-04-25T11:44:38;2.63;;;1.02;;
18249;SDS011;27980;52.126;5.572;2023-04-25T11:47:05;5.22;;;0.80;;
18249;SDS011;27980;52.126;5.572;2023-04-25T11:49:33;1.17;;;0.55;;
18249;SDS011;27980;52.126;5.572;2023-04-25T11:52:00;1.42;;;0.50;;
18249;SDS011;27980;52.126;5.572;2023-04-25T11:54:27;1.33;;;0.80;;
18249;SDS011;27980;52.126;5.572;2023-04-25T11:56:53;2.92;;;1.02;;
18249;SDS011;27980;52.126;5.572;2023-04-25T11:59:24;2.63;;;0.70;;
18249;SDS011;27980;52.126;5.572;2023-04-25T12:01:51;2.10;;;0.65;;
18249;SDS011;27980;52.126;5.572;2023-04-25T12:04:18;5.05;;;0.77;;
18249;SDS011;27980;52.126;5.572;2023-04-25T12:06:46;0.85;;;0.60;;
18249;SDS011;27980;52.126;5.572;2023-04-25T12:09:14;0.60;;;0.50;;
18249;SDS011;27980;52.126;5.572;2023-04-25T12:11:42;2.92;;;1.10;;
18249;SDS011;27980;52.126;5.572;2023-04-25T12:14:08;0.95;;;0.63;;
18249;SDS011;27980;52.126;5.572;2023-04-25T12:16:44;2.42;;;0.80;;
18249;SDS011;27980;52.126;5.572;2023-04-25T12:19:14;2.75;;;0.68;;
18249;SDS011;27980;52.126;5.572;2023-04-25T12:21:43;2.63;;;1.00;;
18249;SDS011;27980;52.126;5.572;2023-04-25T12:24:11;1.58;;;0.80;;
18249;SDS011;27980;52.126;5.572;2023-04-25T12:26:47;3.88;;;0.73;;
18249;SDS011;27980;52.126;5.572;2023-04-25T12:29:17;3.25;;;0.88;;
18249;SDS011;27980;52.126;5.572;2023-04-25T12:31:48;2.17;;;0.60;;
18249;SDS011;27980;52.126;5.572;2023-04-25T12:34:16;1.50;;;0.73;;
18249;SDS011;27980;52.126;5.572;2023-04-25T12:36:43;3.25;;;0.60;;
18249;SDS011;27980;52.126;5.572;2023-04-25T12:39:14;1.70;;;0.63;;
18249;SDS011;27980;52.126;5.572;2023-04-25T12:41:40;2.72;;;0.60;;
18249;SDS011;27980;52.126;5.572;2023-04-25T12:44:07;3.08;;;0.63;;
18249;SDS011;27980;52.126;5.572;2023-04-25T12:46:33;0.88;;;0.73;;
18249;SDS011;27980;52.126;5.572;2023-04-25T12:49:04;1.58;;;1.02;;
18249;SDS011;27980;52.126;5.572;2023-04-25T12:51:32;1.65;;;0.70;;
18249;SDS011;27980;52.126;5.572;2023-04-25T12:53:58;1.63;;;0.98;;
18249;SDS011;27980;52.126;5.572;2023-04-25T12:56:25;5.13;;;1.05;;
18249;SDS011;27980;52.126;5.572;2023-04-25T12:58:51;4.22;;;0.80;;
18249;SDS011;27980;52.126;5.572;2023-04-25T13:01:18;1.27;;;0.52;;
18249;SDS011;27980;52.126;5.572;2023-04-25T13:03:45;0.93;;;0.52;;
18249;SDS011;27980;52.126;5.572;2023-04-25T13:06:14;3.55;;;0.50;;
18249;SDS011;27980;52.126;5.572;2023-04-25T13:08:40;1.75;;;0.50;;
18249;SDS011;27980;52.126;5.572;2023-04-25T13:11:07;0.82;;;0.50;;
18249;SDS011;27980;52.126;5.572;2023-04-25T13:13:34;0.85;;;0.40;;
18249;SDS011;27980;52.126;5.572;2023-04-25T13:16:00;1.48;;;0.60;;
18249;SDS011;27980;52.126;5.572;2023-04-25T13:18:27;2.22;;;0.65;;
18249;SDS011;27980;52.126;5.572;2023-04-25T13:20:54;0.38;;;0.38;;
18249;SDS011;27980;52.126;5.572;2023-04-25T13:23:24;4.07;;;0.70;;
18249;SDS011;27980;52.126;5.572;2023-04-25T13:25:51;2.70;;;0.65;;
18249;SDS011;27980;52.126;5.572;2023-04-25T13:28:17;2.67;;;0.60;;
18249;SDS011;27980;52.126;5.572;2023-04-25T13:30:45;1.17;;;0.50;;
18249;SDS011;27980;52.126;5.572;2023-04-25T13:33:14;0.88;;;0.63;;
18249;SDS011;27980;52.126;5.572;2023-04-25T13:35:43;3.80;;;0.93;;
18249;SDS011;27980;52.126;5.572;2023-04-25T13:38:11;3.85;;;1.15;;
18249;SDS011;27980;52.126;5.572;2023-04-25T13:40:42;2.90;;;0.93;;
18249;SDS011;27980;52.126;5.572;2023-04-25T13:43:10;2.10;;;0.80;;
18249;SDS011;27980;52.126;5.572;2023-04-25T13:45:37;1.23;;;0.60;;
18249;SDS011;27980;52.126;5.572;2023-04-25T13:48:04;3.85;;;0.70;;
18249;SDS011;27980;52.126;5.572;2023-04-25T13:50:30;5.53;;;1.02;;
18249;SDS011;27980;52.126;5.572;2023-04-25T13:52:58;1.88;;;0.65;;
18249;SDS011;27980;52.126;5.572;2023-04-25T13:55:25;6.78;;;1.10;;
18249;SDS011;27980;52.126;5.572;2023-04-25T13:57:53;2.90;;;0.85;;
18249;SDS011;27980;52.126;5.572;2023-04-25T14:00:20;1.02;;;0.63;;
18249;SDS011;27980;52.126;5.572;2023-04-25T14:02:47;1.55;;;0.57;;
18249;SDS011;27980;52.126;5.572;2023-04-25T14:05:14;1.80;;;0.63;;
18249;SDS011;27980;52.126;5.572;2023-04-25T14:07:41;2.25;;;0.70;;
18249;SDS011;27980;52.126;5.572;2023-04-25T14:10:07;2.78;;;0.80;;
18249;SDS011;27980;52.126;5.572;2023-04-25T14:12:35;3.42;;;0.82;;
18249;SDS011;27980;52.126;5.572;2023-04-25T14:15:03;2.50;;;1.05;;
18249;SDS011;27980;52.126;5.572;2023-04-25T14:17:30;2.63;;;0.95;;
18249;SDS011;27980;52.126;5.572;2023-04-25T14:19:58;2.13;;;0.88;;
18249;SDS011;27980;52.126;5.572;2023-04-25T14:22:24;0.85;;;0.80;;
18249;SDS011;27980;52.126;5.572;2023-04-25T14:24:51;1.20;;;0.80;;
18249;SDS011;27980;52.126;5.572;2023-04-25T14:27:18;1.58;;;0.60;;
18249;SDS011;27980;52.126;5.572;2023-04-25T14:29:45;0.70;;;0.70;;
18249;SDS011;27980;52.126;5.572;2023-04-25T14:32:13;3.03;;;0.95;;
18249;SDS011;27980;52.126;5.572;2023-04-25T14:34:40;4.70;;;0.90;;
18249;SDS011;27980;52.126;5.572;2023-04-25T14:37:07;0.70;;;0.70;;
18249;SDS011;27980;52.126;5.572;2023-04-25T14:39:33;2.70;;;0.80;;
18249;SDS011;27980;52.126;5.572;2023-04-25T14:42:00;1.15;;;0.68;;
18249;SDS011;27980;52.126;5.572;2023-04-25T14:44:26;3.38;;;0.82;;
18249;SDS011;27980;52.126;5.572;2023-04-25T14:46:52;3.70;;;0.75;;
18249;SDS011;27980;52.126;5.572;2023-04-25T14:49:21;1.55;;;0.80;;